Stations météo

réclame
Mon MeteoGroup
Villafranca, Espagne (8241): Température de l'air & dewpoint: 19.09.2018 07:00:00 - 25.09.2018 07:00:00 (CEST)Villafranca, Espagne (8241): Vitesse du vent & gusts: 19.09.2018 07:00:00 - 25.09.2018 07:00:00 (CEST)Villafranca, Espagne (8241): Direction du vent: 19.09.2018 07:00:00 - 25.09.2018 07:00:00 (CEST)Villafranca, Espagne (8241): visibility: 19.09.2018 07:00:00 - 25.09.2018 07:00:00 (CEST)Villafranca, Espagne (8241): Ensoleillement: 19.09.2018 07:00:00 - 25.09.2018 07:00:00 (CEST)Villafranca, Espagne (8241): Quantités de précipitations: 19.09.2018 07:00:00 - 25.09.2018 07:00:00 (CEST)
Date & Time tt [°C] td [°C] ff [km/h] ff [knt] fx [km/h] fx [knt] dd vv [km] sd [min] rr [mm]
25.09.2018 07:00:00 - - - - - - - - - -
25.09.2018 06:00:00 11,5 1,9 5 3 15 8 WNW 20 0 0,0
25.09.2018 05:00:00 11,8 1,1 10 5 16 9 NW 20 0 0,0
25.09.2018 04:00:00 12,1 1,9 9 5 17 9 NW 20 0 0,0
25.09.2018 03:00:00 - - - - - - - - - -
25.09.2018 02:00:00 12,5 2,7 9 5 16 9 NW 20 0 -
25.09.2018 01:00:00 12,0 3,4 9 5 15 8 NW 20 0 0,0
25.09.2018 00:00:00 12,3 3,9 8 5 15 8 WNW 20 0 0,0
24.09.2018 23:00:00 13,4 4,5 10 5 18 10 NW 20 0 0,0
24.09.2018 22:00:00 15,1 5,3 10 5 16 9 WNW 20 0 0,0
24.09.2018 21:00:00 17,3 7,3 10 5 16 8 N 20 0 0,0
24.09.2018 20:00:00 19,8 8,8 8 5 16 9 NE - 32 -
24.09.2018 19:00:00 22,5 8,5 10 5 26 14 N - 60 0,0
24.09.2018 18:00:00 23,8 10,4 16 9 29 16 N - 58 0,0
24.09.2018 17:00:00 24,9 10,4 19 11 34 18 N - 60 0,0
24.09.2018 16:00:00 25,0 11,9 19 10 40 22 NNW - 60 0,0
24.09.2018 15:00:00 24,2 11,9 20 11 40 21 NNW - 60 0,0
24.09.2018 14:00:00 23,7 11,7 23 12 35 19 NNW - 60 -
24.09.2018 13:00:00 22,8 11,8 22 12 40 22 NNW - 60 0,0
24.09.2018 12:00:00 21,6 11,6 28 15 44 24 NNW - 60 0,0
24.09.2018 11:00:00 20,8 11,7 26 14 49 26 NW - 60 0,0
24.09.2018 10:00:00 18,7 10,8 29 16 43 23 NNW - 60 0,0
24.09.2018 09:00:00 15,7 10,6 16 8 27 14 NNW 20 26 0,0
24.09.2018 08:00:00 14,9 9,7 18 10 29 16 NNW 20 0 -
24.09.2018 07:00:00 15,2 8,9 17 9 36 19 NNW 20 0 0,0
24.09.2018 06:00:00 16,8 8,3 22 12 33 18 NNW 20 0 0,0
24.09.2018 05:00:00 16,7 7,8 20 11 33 18 NNW 20 0 0,0
24.09.2018 04:00:00 16,8 8,0 18 10 32 18 NW 20 0 0,0
24.09.2018 03:00:00 17,4 7,4 23 13 32 18 NW - 0 0,0
24.09.2018 02:00:00 18,3 6,8 19 11 29 15 NNW - 0 -
24.09.2018 01:00:00 18,4 9,7 16 8 24 13 NW - 0 0,0
24.09.2018 00:00:00 17,2 10,0 12 6 16 9 NW - 0 0,0
23.09.2018 23:00:00 17,0 11,4 9 5 11 6 NNW 20 0 0,0
23.09.2018 22:00:00 18,0 12,8 6 3 8 4 WNW 20 0 0,0
23.09.2018 21:00:00 19,6 13,6 5 3 9 5 NW - 0 0,0
23.09.2018 20:00:00 22,2 12,7 2 1 11 6 NE - 33 -
23.09.2018 19:00:00 24,7 12,6 8 5 17 9 E - 60 0,0
23.09.2018 18:00:00 26,1 12,8 11 6 19 11 ESE - 60 0,0
23.09.2018 17:00:00 27,5 12,3 10 5 19 11 ESE - 60 0,0
23.09.2018 16:00:00 27,8 13,0 10 5 21 11 SE - 58 0,0
23.09.2018 15:00:00 28,8 10,4 8 4 19 11 ESE - 60 0,0
23.09.2018 14:00:00 28,4 10,2 8 5 19 10 E - 60 -
23.09.2018 13:00:00 27,1 8,9 7 4 15 8 N - 60 0,0
23.09.2018 12:00:00 26,0 10,5 5 3 13 7 N - 60 0,0
23.09.2018 11:00:00 23,4 10,4 6 3 14 8 NNW - 60 0,0
23.09.2018 10:00:00 19,4 11,2 8 5 11 6 NW - 60 0,0
23.09.2018 09:00:00 14,0 9,0 8 4 12 7 NNW 20 27 0,0
23.09.2018 08:00:00 12,1 8,3 8 4 10 5 NW 20 0 -
23.09.2018 07:00:00 12,8 8,1 5 3 11 6 NW 20 0 0,0
23.09.2018 06:00:00 13,7 8,5 10 5 13 7 NNW 20 0 0,0
23.09.2018 05:00:00 12,8 8,7 6 4 10 5 NW 20 0 0,0
23.09.2018 04:00:00 13,8 8,8 5 3 11 6 NNW 20 0 0,0
23.09.2018 03:00:00 14,6 8,9 6 3 18 10 NW 20 0 0,0
23.09.2018 02:00:00 15,2 9,3 13 7 18 10 NW 20 0 -
23.09.2018 01:00:00 15,4 9,9 14 8 17 9 NW 20 0 0,0
23.09.2018 00:00:00 15,4 10,5 10 5 13 7 NW 20 0 0,0
22.09.2018 23:00:00 16,2 10,9 9 5 11 6 NW 20 0 0,0
22.09.2018 22:00:00 17,6 11,2 8 4 12 7 NW 20 0 0,0
22.09.2018 21:00:00 19,8 11,3 6 3 12 7 NW - 0 0,0
22.09.2018 20:00:00 22,4 10,9 2 1 13 7 ENE - 35 -
22.09.2018 19:00:00 24,5 17,0 7 4 16 9 ESE - 60 0,0
22.09.2018 18:00:00 25,6 16,1 11 6 18 10 SE - 60 0,0
22.09.2018 17:00:00 27,4 12,6 3 2 18 10 WNW - 60 0,0
22.09.2018 16:00:00 27,0 13,8 9 5 16 8 ESE - 60 0,0
22.09.2018 15:00:00 25,6 13,2 10 5 21 11 ESE - 55 0,0
22.09.2018 14:00:00 25,5 12,6 13 7 23 12 SE - 60 -
22.09.2018 13:00:00 24,7 13,0 10 5 18 10 ESE - 59 0,0
22.09.2018 12:00:00 23,6 12,5 10 5 19 10 E - 60 0,0
22.09.2018 11:00:00 21,8 12,1 9 5 15 8 E - 60 0,0
22.09.2018 10:00:00 20,0 11,4 6 3 11 6 ESE - 60 0,0
22.09.2018 09:00:00 12,9 10,6 2 1 5 3 SSE 20 24 0,0
22.09.2018 08:00:00 11,5 9,2 4 2 9 5 NNW 17 0 -
22.09.2018 07:00:00 12,1 9,4 6 3 13 7 NW 20 0 0,0
22.09.2018 06:00:00 12,4 9,8 10 5 14 8 NW 20 0 0,0
22.09.2018 05:00:00 12,7 10,0 10 5 13 7 NW 20 0 0,0
22.09.2018 04:00:00 13,1 10,0 5 3 13 7 WNW 20 0 0,0
22.09.2018 03:00:00 13,7 10,5 10 5 16 9 NW 20 0 0,0
22.09.2018 02:00:00 14,4 10,8 12 6 16 8 NW 20 0 -
22.09.2018 01:00:00 15,0 11,0 9 5 18 10 NW 20 0 0,0
22.09.2018 00:00:00 - - - - - - - - - -
21.09.2018 23:00:00 16,5 12,8 9 5 11 6 NW 20 0 0,0
21.09.2018 22:00:00 17,4 13,6 8 4 13 7 NW 20 0 0,0
21.09.2018 21:00:00 18,8 14,2 4 2 8 4 NNW - 0 0,0
21.09.2018 20:00:00 21,0 14,6 5 3 6 3 NW - 2 -
21.09.2018 19:00:00 22,9 14,4 4 2 19 10 E - 60 0,0
21.09.2018 18:00:00 23,6 13,5 13 7 20 11 SE - 43 0,0
21.09.2018 17:00:00 25,5 14,9 5 3 19 11 NE - 22 0,0
21.09.2018 16:00:00 25,9 13,8 8 4 17 9 SE - 14 0,0
21.09.2018 15:00:00 26,7 9,6 6 4 18 10 NNE - 32 0,0
21.09.2018 14:00:00 26,8 10,5 10 6 22 12 N - 58 -
21.09.2018 13:00:00 26,6 10,3 10 5 28 15 NNW - 60 0,0
21.09.2018 12:00:00 24,9 12,1 13 7 24 13 NNW - 60 0,0
21.09.2018 11:00:00 22,9 11,9 12 7 18 10 NNW - 60 0,0
21.09.2018 10:00:00 18,9 13,3 9 5 14 8 NNW - 60 0,0
21.09.2018 09:00:00 13,8 11,0 5 3 11 6 NW 20 23 0,0
21.09.2018 08:00:00 12,5 9,9 8 4 9 5 NNW 20 0 -
21.09.2018 07:00:00 12,6 9,8 8 4 12 7 NW 20 0 0,0
21.09.2018 06:00:00 12,9 10,0 10 5 15 8 NNW 20 0 0,0
21.09.2018 05:00:00 12,4 10,3 7 4 9 5 NNW 20 0 0,0
21.09.2018 04:00:00 13,0 10,8 3 2 9 5 WNW 20 0 0,0
21.09.2018 03:00:00 13,6 11,1 7 4 9 5 NNW 20 0 0,0
21.09.2018 02:00:00 14,2 11,6 4 2 12 7 N 20 0 -
21.09.2018 01:00:00 15,4 11,3 5 3 10 6 W 20 0 0,0
21.09.2018 00:00:00 15,4 13,1 3 2 8 4 W 20 0 0,0
20.09.2018 23:00:00 16,4 14,6 2 1 5 3 WNW 6 0 0,0
20.09.2018 22:00:00 - - - - - - - - - -
20.09.2018 21:00:00 18,1 15,5 7 4 11 6 SE - 0 0,0
20.09.2018 20:00:00 18,7 16,1 7 4 12 7 ESE - 9 -
20.09.2018 19:00:00 19,4 16,6 7 4 30 16 ESE - 1 0,0
20.09.2018 18:00:00 21,2 14,3 12 6 26 14 NE - 39 0,0
20.09.2018 17:00:00 24,9 14,3 14 7 26 14 SE - 52 0,0
20.09.2018 16:00:00 25,0 13,9 9 5 26 14 ESE - 48 0,0
20.09.2018 15:00:00 25,7 13,6 11 6 21 11 ESE - 60 0,0
20.09.2018 14:00:00 25,6 9,8 8 5 18 10 SE - 60 -
20.09.2018 13:00:00 25,0 11,9 4 2 16 8 ENE - 60 0,0
20.09.2018 12:00:00 23,8 9,4 4 2 12 6 SSE - 60 0,0
20.09.2018 11:00:00 20,9 11,6 7 4 11 6 N - 60 0,0
20.09.2018 10:00:00 16,2 12,5 6 4 11 6 NW - 60 0,0
20.09.2018 09:00:00 11,3 9,7 9 5 13 7 NW 20 24 0,0
20.09.2018 08:00:00 9,8 8,1 9 5 11 6 NW 20 0 -
20.09.2018 07:00:00 9,9 8,4 9 5 11 6 NW 20 0 0,0
20.09.2018 06:00:00 9,9 8,4 6 4 9 5 NW 20 0 0,0
20.09.2018 05:00:00 10,4 8,8 6 4 8 5 NNW 20 0 0,0
20.09.2018 04:00:00 11,0 9,4 6 3 7 4 NW 20 0 0,0
20.09.2018 03:00:00 11,7 10,2 6 3 9 5 WNW 20 0 0,0
20.09.2018 02:00:00 12,4 10,8 6 3 8 4 NW 15 0 -
20.09.2018 01:00:00 13,1 11,4 4 2 7 4 NNW 4,8 0 0,0
20.09.2018 00:00:00 14,1 12,7 2 1 4 2 NW - 0 0,0
19.09.2018 23:00:00 15,2 13,7 5 3 7 4 E - 0 0,0
19.09.2018 22:00:00 16,8 15,5 2 1 5 3 WNW 0,9 0 0,0
19.09.2018 21:00:00 17,2 15,3 4 2 10 6 E 0,2 0 0,0
19.09.2018 20:00:00 18,5 15,7 4 2 12 7 E - 25 -
19.09.2018 19:00:00 19,4 15,9 8 4 21 11 ESE - 34 0,0
19.09.2018 18:00:00 20,6 16,2 13 7 22 12 ESE - 51 0,0
19.09.2018 17:00:00 21,8 15,9 13 7 26 14 ESE - 42 0,0
19.09.2018 16:00:00 23,4 14,9 12 7 21 12 ESE - 37 0,0
19.09.2018 15:00:00 24,0 14,7 11 6 18 10 ESE - 48 0,0
19.09.2018 14:00:00 24,4 12,6 8 5 16 9 NE - 55 -
19.09.2018 13:00:00 23,5 12,7 6 3 18 10 NNE - 60 0,0
19.09.2018 12:00:00 21,4 11,7 8 4 21 11 N - 60 0,0
19.09.2018 11:00:00 20,0 12,2 10 5 19 11 N - 60 0,0
19.09.2018 10:00:00 16,8 14,0 10 6 17 9 NNW - 60 0,0
19.09.2018 09:00:00 12,9 11,8 8 4 12 7 NW 20 25 0,0
19.09.2018 08:00:00 11,7 10,3 8 4 14 8 NW 20 0 -
19.09.2018 07:00:00 11,7 10,4 9 5 13 7 NNW 20 0 0,0

tt = Température de l'air
td = dewpoint
ff = Vitesse du vent
fx = gusts
dd = Direction du vent
vv = visibility
sd = Ensoleillement
rr = Quantités de précipitations

stations d'obs. à proximité